Latest Weather Observations for Thredbo Top Station

IDN60901

Issued at 8:21 am EDT Thursday 2 April 2015 (issued every 10 minutes, with the page automatically refreshed every 10 minutes)

About weather observations | Map of Canberra area stations | Latest observations for Canberra area | Other Formats
Station Details ID: 071032 Name: THREDBO AWS Lat: -36.49 Lon: 148.29 Height: 1957.0 m
Data from the previous 72 hours. | See also: Recent months at Thredbo Top Station
Date/Time
EDT
Tmp

°C
App
Tmp
°C
Dew
Point
°C
Rel
Hum
%
Delta-T

°C
Wind Press
QNH
hPa
Press
MSL
hPa
Rain
since
9 am
mm
Dir
 
Spd
km/h
Gust
km/h
Spd
kts
Gust
kts
02/08:00am 8.6 -0.2 7.2 91 0.7 NNW 43 57 23 31 1019.8 1019.7 0.0
02/07:30am 8.7 0.6 7.0 89 0.9 NNW 39 59 21 32 1019.4 1019.3 0.0
02/07:00am 8.7 -0.1 7.2 90 0.8 NNW 43 63 23 34 1019.5 1019.4 0.0
02/06:30am 9.3 -0.5 7.1 86 1.1 NNW 48 67 26 36 1019.1 1019.0 0.0
02/05:45am 9.2 -2.0 7.5 89 0.9 NNW 56 74 30 40 1018.9 1018.8 0.0
02/05:30am 9.4 -2.4 7.3 87 1.1 NNW 59 76 32 41 1018.8 1018.7 0.0
02/05:00am 9.6 -3.7 7.5 87 1.1 NNW 67 85 36 46 1018.3 1018.2 0.0
02/04:31am 9.6 -3.7 7.4 86 1.1 NNW 67 85 36 46 1018.3 1018.2 0.0
02/04:30am 9.6 -3.7 7.4 86 1.1 NNW 67 80 36 43 1018.4 1018.3 0.0
02/04:02am 9.7 -4.0 7.6 87 1.1 NNW 69 89 37 48 1018.6 1018.5 0.0
02/04:00am 9.7 -4.0 7.6 87 1.1 NNW 69 85 37 46 1018.7 1018.6 0.0
02/03:42am 9.8 -2.7 7.7 87 1.1 NNW 63 85 34 46 1019.0 1018.9 0.0
02/03:30am 9.9 -1.5 7.7 86 1.1 NNW 57 72 31 39 1019.2 1019.2 0.0
02/03:00am 9.9 -2.2 7.8 87 1.1 NNW 61 82 33 44 1020.0 1020.0 0.0
02/02:47am 9.9 -4.3 7.7 86 1.1 NNW 72 91 39 49 1019.6 1019.5 0.0
02/02:30am 9.9 -4.3 7.7 86 1.1 NNW 72 89 39 48 1019.5 1019.4 0.0
02/02:00am 9.8 -1.6 7.4 85 1.2 NNW 57 78 31 42 1019.9 1019.9 0.0
02/01:30am 9.9 -1.0 7.3 84 1.3 NNW 54 74 29 40 1020.4 1020.3 0.0
02/01:06am 10.0 -2.2 7.4 84 1.3 NNW 61 80 33 43 1020.6 1020.6 0.0
02/01:00am 9.9 -3.1 7.3 84 1.3 NNW 65 80 35 43 1020.6 1020.6 0.0
02/12:47am 9.9 -3.4 7.5 85 1.2 NNW 67 85 36 46 1020.6 1020.6 0.0
02/12:30am 9.9 -3.8 7.5 85 1.2 NNW 69 83 37 45 1020.6 1020.6 0.0
 
Date/Time
EDT
Tmp

°C
App
Tmp
°C
Dew
Point
°C
Rel
Hum
%
Delta-T

°C
Wind Press
QNH
hPa
Press
MSL
hPa
Rain
since
9 am
mm
Dir
 
Spd
km/h
Gust
km/h
Spd
kts
Gust
kts
01/11:30pm 9.8 -2.3 7.6 86 1.1 NNW 61 85 33 46 1021.2 1021.2 0.0
01/11:10pm 9.8 -2.3 7.6 86 1.1 NNW 61 80 33 43 1021.3 1021.3 0.0
01/11:00pm 9.9 -2.6 7.5 85 1.2 NNW 63 76 34 41 1021.3 1021.3 0.0
01/10:30pm 9.8 -2.3 7.6 86 1.1 NNW 61 78 33 42 1021.4 1021.4 0.0
01/10:00pm 9.8 -1.6 7.4 85 1.2 NNW 57 76 31 41 1021.8 1021.8 0.0
01/09:59pm 9.8 -1.6 7.4 85 1.2 NNW 57 76 31 41 1021.8 1021.8 0.0
01/09:30pm 9.7 -1.8 7.3 85 1.2 NNW 57 70 31 38 1021.9 1021.9 0.0
01/09:06pm 9.6 -1.7 7.0 84 1.3 NNW 56 74 30 40 1021.6 1021.6 0.0
01/09:00pm 9.6 -1.9 7.2 85 1.2 NNW 57 72 31 39 1021.5 1021.5 0.0
01/08:30pm 9.7 -0.9 7.1 84 1.3 NNW 52 65 28 35 1021.4 1021.4 0.0
01/08:00pm 9.8 -1.7 7.1 83 1.4 NNW 57 69 31 37 1021.4 1021.4 0.0
01/07:30pm 9.7 -1.3 7.0 83 1.4 NNW 54 65 29 35 1021.1 1021.0 0.0
01/07:00pm 9.9 -1.0 7.2 83 1.4 NNW 54 69 29 37 1021.3 1021.3 0.0
01/06:30pm 10.1 -0.5 7.0 81 1.6 NNW 52 70 28 38 1021.4 1021.4 0.0
01/06:27pm 10.1 -0.4 7.2 82 1.5 NNW 52 70 28 38 1021.3 1021.3 0.0
01/06:00pm 10.0 0.6 7.3 83 1.4 NNW 46 61 25 33 1021.3 1021.3 0.0
01/05:30pm 10.1 2.4 7.2 82 1.5 NW 37 56 20 30 1021.4 1021.4 0.0
01/05:28pm 10.1 2.8 7.3 83 1.4 NW 35 54 19 29 1021.4 1021.4 0.0
01/05:00pm 10.8 1.4 7.3 79 1.8 NNW 46 59 25 32 1021.5 1021.5 0.0
01/04:30pm 11.0 1.7 7.7 80 1.7 NNW 46 61 25 33 1021.6 1021.6 0.0
01/04:18pm 10.2 1.2 7.1 81 1.6 NNW 44 63 24 34 1021.6 1021.6 0.0
01/04:00pm 10.4 1.8 6.7 78 1.9 NNW 41 54 22 29 1021.9 1021.9 0.0
01/03:31pm 10.7 1.5 6.5 75 2.1 NNW 44 63 24 34 1022.0 1022.0 0.0
01/03:30pm 10.7 1.1 6.3 74 2.2 NNW 46 63 25 34 1022.0 1022.0 0.0
01/03:15pm 11.2 2.1 5.7 69 2.8 NNW 43 61 23 33 1022.0 1022.0 0.0
01/03:00pm 11.6 2.6 6.3 70 2.7 NNW 43 59 23 32 1022.2 1022.2 0.0
01/02:30pm 11.7 3.8 6.0 68 2.9 NNW 37 50 20 27 1022.8 1022.8 0.0
01/02:00pm 11.7 4.1 5.6 66 3.1 NNW 35 48 19 26 1023.1 1023.2 0.0
01/01:30pm 12.0 4.9 5.4 64 3.3 NNW 32 43 17 23 1023.5 1023.5 0.0
01/01:00pm 11.4 5.1 5.5 67 2.9 NNW 28 41 15 22 1024.4 1024.5 0.0
01/12:30pm 12.4 5.3 5.3 62 3.6 N 32 41 17 22 1024.3 1024.3 0.0
01/12:00pm 12.6 5.7 4.6 58 3.9 N 30 39 16 21 1024.4 1024.5 0.0
01/11:30am 13.3 6.4 4.7 56 4.3 N 30 37 16 20 - - 0.0
01/11:00am 12.1 7.1 3.6 56 4.1 NNW 19 28 10 15 - - 0.0
01/10:30am 11.4 5.9 3.9 60 3.6 NNW 22 28 12 15 - - 0.0
01/10:00am 11.9 7.9 2.6 53 4.4 NW 13 24 7 13 - - 0.0
01/09:30am 10.6 5.6 4.7 67 2.9 NW 20 26 11 14 - - 0.0
01/09:00am 9.5 4.9 3.5 66 2.8 NNW 17 20 9 11 1026.4 1024.3 0.0
01/08:30am 9.7 4.4 3.0 63 3.1 N 20 24 11 13 1026.3 1024.2 0.0
01/08:00am 8.4 3.2 2.4 66 2.7 N 19 20 10 11 1026.2 1024.1 0.0
01/07:30am 5.4 0.1 1.7 77 1.6 N 19 20 10 11 1026.3 1024.2 0.0
01/07:00am 4.8 -0.4 2.2 83 1.1 NNW 19 20 10 11 1026.4 1024.3 0.0
01/06:30am 5.8 0.9 2.3 78 1.6 NW 17 20 9 11 1026.4 1024.3 0.0
01/06:00am 4.2 -0.4 1.7 84 1.1 NNW 15 17 8 9 1026.4 1024.3 0.0
01/05:30am 3.2 -1.9 0.6 83 1.1 NNW 17 17 9 9 1026.3 1024.2 0.0
01/05:00am 4.8 -0.2 1.1 77 1.6 NNW 17 19 9 10 1026.4 1024.3 0.0
01/04:30am 4.4 0.1 0.7 77 1.6 NNW 13 15 7 8 1026.6 1024.4 0.0
01/04:00am 4.4 0.1 0.7 77 1.6 NNW 13 15 7 8 1026.9 1024.8 0.0
01/03:30am 6.3 1.4 2.0 74 1.9 NW 17 19 9 10 1027.4 1025.3 0.0
01/03:00am 5.8 1.6 1.5 74 1.9 NNW 13 15 7 8 1027.5 1025.4 0.0
01/02:30am 6.8 2.0 2.5 74 1.9 WNW 17 19 9 10 1027.9 1025.8 0.0
01/02:00am 7.4 2.2 2.7 72 2.1 WNW 19 22 10 12 1028.2 1026.1 0.0
01/01:30am 7.6 2.3 2.9 72 2.2 WNW 20 26 11 14 1028.3 1026.2 0.0
01/01:00am 8.7 3.5 3.3 69 2.5 NW 20 28 11 15 1028.3 1026.2 0.0
01/12:30am 9.0 3.7 3.2 67 2.7 NW 20 28 11 15 1028.5 1026.4 0.0
01/12:00am 8.7 3.4 3.1 68 2.6 NW 20 28 11 15 1028.6 1026.6 0.0
 
Date/Time
EDT
Tmp

°C
App
Tmp
°C
Dew
Point
°C
Rel
Hum
%
Delta-T

°C
Wind Press
QNH
hPa
Press
MSL
hPa
Rain
since
9 am
mm
Dir
 
Spd
km/h
Gust
km/h
Spd
kts
Gust
kts
31/11:30pm 8.8 3.6 3.6 70 2.4 NW 20 26 11 14 1028.7 1026.7 0.0
31/11:00pm 5.4 0.0 2.6 82 1.2 NNW 20 22 11 12 1028.7 1026.7 0.0
31/10:30pm 4.7 0.7 0.5 74 1.8 NNW 11 13 6 7 1028.7 1026.7 0.0
31/10:00pm 5.2 1.2 0.6 72 1.9 NW 11 13 6 7 1028.6 1026.6 0.0
31/09:30pm 6.0 2.8 0.6 68 2.3 NNW 7 11 4 6 1028.7 1026.7 0.0
31/09:00pm 7.1 4.2 1.2 66 2.6 NW 6 9 3 5 1028.5 1026.4 0.0
31/08:30pm 6.5 3.8 0.4 65 2.6 NW 4 6 2 3 1028.6 1026.6 0.0
31/08:00pm 5.9 3.1 -0.2 65 2.5 NW 4 9 2 5 1028.6 1026.6 0.0
31/07:30pm 7.6 4.4 -0.6 56 3.5 NNW 6 7 3 4 1028.3 1026.2 0.0
31/07:00pm 8.6 5.4 -0.7 52 3.9 N 6 9 3 5 1027.8 1025.7 0.0
31/06:30pm 10.3 7.6 0.1 49 4.5 NNE 4 7 2 4 1027.4 1025.3 0.0
31/06:00pm 12.1 9.0 0.2 44 5.3 NE 6 7 3 4 1027.2 1025.1 0.0
31/05:30pm 13.0 9.9 0.4 42 5.7 ENE 6 7 3 4 1027.0 1024.9 0.0
31/05:00pm 13.4 9.8 0.4 41 5.9 ENE 9 13 5 7 1026.9 1024.8 0.0
31/04:30pm 13.8 10.3 1.1 42 5.9 ENE 9 17 5 9 1026.9 1024.8 0.0
31/04:00pm 13.8 10.2 0.8 41 6.0 E 9 17 5 9 1027.0 1024.9 0.0
31/03:30pm 14.0 10.0 0.6 40 6.2 SE 11 17 6 9 1027.2 1025.1 0.0
31/03:00pm 14.1 11.2 2.4 45 5.6 E 7 13 4 7 1027.6 1025.5 0.0
31/02:30pm 13.6 10.8 1.9 45 5.5 S 6 9 3 5 1028.0 1026.0 0.0
31/02:00pm 12.9 8.6 1.3 45 5.3 S 13 26 7 14 1028.4 1026.3 0.0
31/01:30pm 13.4 9.2 1.4 44 5.6 SSE 13 22 7 12 1028.7 1026.7 0.0
31/01:00pm 13.5 9.5 -2.4 33 6.8 SE 9 17 5 9 1029.1 1027.0 0.0
31/12:30pm 12.8 8.8 -2.6 34 6.5 SE 9 15 5 8 1029.3 1027.3 0.0
31/12:00pm 12.4 9.1 -0.1 42 5.5 SE 7 15 4 8 1029.8 1027.7 0.0
31/11:30am 12.4 8.4 -2.6 35 6.3 E 9 19 5 10 1030.0 1028.0 0.0
31/11:00am 11.5 7.4 -3.4 35 6.1 E 9 15 5 8 - - 0.0
31/10:30am 11.2 7.5 -0.3 45 5.1 E 9 17 5 9 - - 0.0
31/10:00am 10.8 6.6 -0.9 44 5.1 E 11 19 6 10 - - 0.0
31/09:30am 10.5 6.6 -1.5 43 5.1 NE 9 15 5 8 - - 0.0
31/09:00am 9.2 5.5 -0.1 52 4.0 NNE 9 13 5 7 - - 0.0
31/08:30am 7.2 2.7 -0.3 59 3.2 N 13 19 7 10 - - 0.0
31/08:00am 6.1 1.7 -2.2 55 3.3 N 11 15 6 8 - - 0.0
31/07:30am 2.6 -2.1 -2.1 71 1.8 N 13 17 7 9 - - 0.0
31/07:00am 4.1 0.2 -1.3 68 2.1 N 9 11 5 6 1029.1 1027.0 0.0
31/06:30am 1.9 -2.0 -1.3 79 1.2 NW 9 11 5 6 1028.8 1026.8 0.0
31/06:00am 2.1 -2.0 -0.5 83 1.0 NW 11 15 6 8 1028.6 1026.6 0.0
31/05:30am 2.4 -1.7 0.0 84 1.0 NW 11 15 6 8 1028.6 1026.6 0.0
31/05:00am 1.0 -3.6 -1.1 86 0.8 NNW 13 15 7 8 1028.5 1026.4 0.0
31/04:30am 3.0 -0.7 -0.3 79 1.3 NW 9 11 5 6 1028.6 1026.6 0.0
31/04:00am 2.4 -1.7 -0.4 82 1.1 NNW 11 13 6 7 1028.8 1026.8 0.0
31/03:30am 3.2 -0.4 0.3 81 1.2 NNW 9 11 5 6 1029.1 1027.0 0.0
31/03:00am 2.7 -1.7 0.4 85 0.9 NNW 13 17 7 9 1029.2 1027.1 0.0
31/02:30am 2.8 -1.2 0.2 83 1.1 NW 11 15 6 8 1029.3 1027.3 0.0
31/02:00am 3.0 -0.7 0.1 81 1.2 NW 9 13 5 7 1029.3 1027.3 0.0
31/01:30am 3.2 -1.5 0.9 85 1.0 NNW 15 17 8 9 1029.3 1027.3 0.0
31/01:00am 2.4 -2.3 1.1 91 0.5 NNW 15 19 8 10 1029.2 1027.1 0.0
31/12:30am 3.6 -0.7 1.3 85 1.0 N 13 17 7 9 1029.3 1027.3 0.0
31/12:00am 3.3 -1.7 1.3 87 0.8 NNW 17 19 9 10 1029.4 1027.4 0.0
 
Date/Time
EDT
Tmp

°C
App
Tmp
°C
Dew
Point
°C
Rel
Hum
%
Delta-T

°C
Wind Press
QNH
hPa
Press
MSL
hPa
Rain
since
9 am
mm
Dir
 
Spd
km/h
Gust
km/h
Spd
kts
Gust
kts
30/11:30pm 2.0 -2.4 0.1 87 0.8 N 13 15 7 8 1029.4 1027.4 0.0
30/11:00pm 4.4 0.3 2.4 87 0.9 N 13 17 7 9 1029.5 1027.5 0.0
30/10:30pm 2.8 -0.7 1.5 91 0.6 N 9 15 5 8 1029.5 1027.5 0.0
30/10:00pm 5.8 3.3 4.6 92 0.6 NE 7 13 4 7 1029.5 1027.5 0.0
30/09:30pm 6.9 4.2 5.8 93 0.5 ESE 9 19 5 10 1029.2 1027.1 0.0
30/09:00pm 6.6 4.0 4.1 84 1.2 SSE 7 11 4 6 1028.8 1026.8 0.0
30/08:30pm 8.1 5.6 3.6 73 2.1 SSE 6 11 3 6 1028.5 1026.4 0.0
30/08:00pm 7.2 4.3 2.7 73 2.0 SSW 7 19 4 10 1028.3 1026.2 0.0
30/07:30pm 7.5 3.9 2.8 72 2.1 SSW 11 13 6 7 1027.7 1025.6 0.0
30/07:00pm 7.8 4.2 2.9 71 2.2 SW 11 15 6 8 1027.4 1025.3 0.0
30/06:30pm 8.3 5.1 3.0 69 2.4 SW 9 13 5 7 1026.9 1024.8 0.0
30/06:00pm 10.1 6.6 3.6 64 3.1 SSW 11 17 6 9 1026.4 1024.3 0.0
30/05:30pm 10.9 7.7 3.2 59 3.6 SW 9 15 5 8 1026.1 1024.0 0.0
30/05:00pm 11.3 7.4 3.3 58 3.8 SW 13 19 7 10 1025.9 1023.7 0.0
30/04:30pm 11.5 6.7 0.3 46 5.0 SW 15 19 8 10 1025.9 1023.7 0.0
30/04:00pm 11.4 6.6 2.4 54 4.2 SW 17 24 9 13 1025.9 1023.7 0.0
30/03:30pm 11.6 7.4 1.8 51 4.5 SSW 13 19 7 10 1025.9 1023.7 0.0
30/03:00pm 11.8 6.5 -0.4 43 5.4 SSW 17 24 9 13 1025.9 1023.7 0.0
30/02:30pm 12.0 8.4 0.5 45 5.2 WNW 9 19 5 10 1025.9 1023.7 0.0
30/02:00pm 11.3 6.9 -2.8 37 5.8 NW 11 19 6 10 1026.0 1023.8 0.0
30/01:30pm 10.7 6.3 0.4 49 4.6 WNW 13 19 7 10 - - 0.0
30/01:00pm 9.5 3.8 -0.7 49 4.4 NW 19 24 10 13 - - 0.0
30/12:30pm 10.3 4.4 1.4 54 4.0 NW 22 33 12 18 - - 0.0
30/12:00pm 9.7 3.7 1.1 55 3.9 NW 22 32 12 17 - - 0.0
30/11:30am 8.9 3.6 -0.4 52 4.0 NW 17 26 9 14 - - 0.0
30/11:00am 9.2 5.3 1.1 57 3.6 NNW 11 22 6 12 - - 0.0
30/10:30am 8.8 4.0 0.0 54 3.8 NW 15 22 8 12 - - 0.0
30/10:00am 8.6 5.0 -1.8 48 4.3 NNW 7 20 4 11 - - 0.0
30/09:30am 7.2 3.5 -2.8 49 4.0 WNW 7 17 4 9 - - 0.0
30/09:00am 8.3 4.9 -5.5 37 5.2 N 4 11 2 6 - - 0.0
30/08:30am 7.8 3.8 -7.8 32 5.6 WNW 6 19 3 10 - - 0.0

Latest Capital City Observations: Canberra | Sydney | Melbourne | Brisbane | Adelaide | Perth | Hobart | Darwin

Other Formats:

Comma delimited format used in spreadsheet applications
http://www.bom.gov.au/fwo/IDN60903/IDN60903.95909.axf

JavaScript Object Notation format (JSON) in row-major order
http://www.bom.gov.au/fwo/IDN60903/IDN60903.95909.json